Time;durP1;ratioP1;P1;durP2;ratioP2;P2;SDS_P1;SDS_P2;PMS_P1;PMS_P2;Temp;Humidity;BMP_temperature;BMP_pressure;BME280_temperature;BME280_humidity;BME280_pressure;Samples;Min_cycle;Max_cycle;Signal;HPM_P1;HPM_P2
2023/03/18 00:01:48;;;;;;;6.60;3.65;;;9.80;99.90;;;;;;4696252;28;9999816;-72
2023/03/18 00:04:23;;;;;;;5.63;3.90;;;9.80;99.90;;;;;;5048301;28;20032;-73
2023/03/18 00:06:48;;;;;;;5.57;3.53;;;9.90;99.90;;;;;;5060983;28;20135;-72
2023/03/18 00:09:15;;;;;;;7.47;3.97;;;9.90;99.90;;;;;;5034304;28;20112;-72
2023/03/18 00:11:44;;;;;;;6.50;3.90;;;9.90;99.90;;;;;;5036789;28;20050;-72
2023/03/18 00:14:11;;;;;;;5.78;3.80;;;9.90;99.90;;;;;;5035455;28;20055;-72
2023/03/18 00:16:44;;;;;;;7.85;4.10;;;9.90;99.90;;;;;;5032691;28;20033;-72
2023/03/18 00:19:11;;;;;;;;;;;9.90;99.90;;;;;;5037049;28;20159;-73
2023/03/18 00:21:38;;;;;;;10.73;3.63;;;9.90;99.90;;;;;;5041930;28;20276;-72
2023/03/18 00:24:15;;;;;;;7.00;3.65;;;9.90;99.90;;;;;;5048778;28;20159;-73
2023/03/18 00:26:51;;;;;;;8.30;3.75;;;9.90;99.90;;;;;;5040887;28;20024;-73
2023/03/18 00:29:22;;;;;;;7.00;3.78;;;9.90;99.90;;;;;;5058131;28;20028;-73
2023/03/18 00:31:57;;;;;;;7.38;3.80;;;9.90;99.90;;;;;;5059995;28;20032;-73
2023/03/18 00:34:32;;;;;;;8.15;4.22;;;9.90;99.90;;;;;;5041948;28;20102;-73
2023/03/18 00:37:07;;;;;;;9.48;3.90;;;9.90;99.90;;;;;;5051410;28;20051;-72
2023/03/18 00:39:34;;;;;;;6.53;4.25;;;9.90;99.90;;;;;;5054738;28;20043;-73
2023/03/18 00:42:09;;;;;;;6.95;4.25;;;9.90;99.90;;;;;;5042038;28;20218;-72
2023/03/18 00:44:35;;;;;;;5.75;3.92;;;9.90;99.90;;;;;;5054439;28;20167;-73
2023/03/18 00:47:03;;;;;;;6.85;4.20;;;9.90;99.90;;;;;;5053839;28;20028;-72
2023/03/18 00:49:29;;;;;;;8.52;4.05;;;9.90;99.90;;;;;;5043752;28;20546;-72
2023/03/18 00:52:03;;;;;;;5.82;3.70;;;9.90;99.90;;;;;;5042330;28;20037;-72
2023/03/18 00:54:38;;;;;;;6.05;3.75;;;9.80;99.90;;;;;;5045225;28;20048;-72
2023/03/18 00:57:12;;;;;;;6.80;4.22;;;9.90;99.90;;;;;;5041980;28;20039;-72
2023/03/18 00:59:47;;;;;;;8.95;4.32;;;9.80;99.90;;;;;;5044367;28;20045;-72
2023/03/18 01:02:13;;;;;;;6.50;4.05;;;9.80;99.90;;;;;;5046961;28;20582;-72
2023/03/18 01:04:44;;;;;;;10.43;4.32;;;9.80;99.90;;;;;;5049409;28;20108;-72
2023/03/18 01:07:15;;;;;;;8.13;4.10;;;9.80;99.90;;;;;;5041179;28;20041;-72
2023/03/18 01:09:51;;;;;;;10.93;4.32;;;9.70;99.90;;;;;;5048202;28;20048;-72
2023/03/18 01:12:24;;;;;;;7.95;4.15;;;9.70;99.90;;;;;;5035796;28;20021;-72
2023/03/18 01:14:57;;;;;;;7.07;4.47;;;9.60;99.90;;;;;;5035788;28;20039;-72
2023/03/18 01:17:31;;;;;;;;;;;9.60;99.90;;;;;;5044282;28;20029;-72
2023/03/18 01:20:03;;;;;;;9.60;4.00;;;9.60;99.90;;;;;;5045697;28;20361;-72
2023/03/18 01:22:42;;;;;;;7.78;4.20;;;9.60;99.90;;;;;;5048153;28;20040;-72
2023/03/18 01:25:14;;;;;;;9.73;4.70;;;9.60;99.90;;;;;;5040197;28;20064;-72
2023/03/18 01:27:48;;;;;;;4.35;3.17;;;9.50;99.90;;;;;;5040142;28;20030;-72
2023/03/18 01:30:14;;;;;;;8.73;4.50;;;9.60;99.90;;;;;;5028551;28;20056;-72
2023/03/18 01:32:49;;;;;;;7.53;4.13;;;9.60;99.90;;;;;;5043599;28;20045;-72
2023/03/18 01:35:26;;;;;;;8.18;4.57;;;9.60;99.90;;;;;;5042292;28;20052;-72
2023/03/18 01:37:56;;;;;;;6.05;4.10;;;9.50;99.90;;;;;;5037204;28;20490;-72
2023/03/18 01:40:22;;;;;;;6.68;4.45;;;9.60;99.90;;;;;;5040741;28;20045;-72
2023/03/18 01:42:56;;;;;;;7.40;4.70;;;9.60;99.90;;;;;;5044634;28;20029;-73
2023/03/18 01:45:29;;;;;;;10.18;4.95;;;9.50;99.90;;;;;;5044269;28;20418;-72
2023/03/18 01:48:01;;;;;;;9.32;4.80;;;9.50;99.90;;;;;;5053304;28;20040;-72
2023/03/18 01:50:38;;;;;;;9.50;4.60;;;9.50;99.90;;;;;;5036496;28;20033;-72
2023/03/18 01:53:14;;;;;;;10.15;4.65;;;9.50;99.90;;;;;;5047997;28;20036;-72
2023/03/18 01:55:51;;;;;;;9.73;5.75;;;9.40;99.90;;;;;;5034376;28;20038;-71
2023/03/18 01:58:31;;;;;;;12.35;6.22;;;9.40;99.90;;;;;;5042768;28;20040;-71
2023/03/18 02:01:10;;;;;;;9.32;6.05;;;9.30;99.90;;;;;;5051969;28;20060;-71
2023/03/18 02:03:38;;;;;;;9.75;6.25;;;9.20;99.90;;;;;;5058130;28;20060;-70
2023/03/18 02:06:13;;;;;;;11.82;6.45;;;9.10;99.90;;;;;;5051258;28;20091;-71
2023/03/18 02:08:41;;;;;;;16.77;6.40;;;9.10;99.90;;;;;;5036943;28;20116;-70
2023/03/18 02:11:15;;;;;;;11.43;6.10;;;9.00;99.90;;;;;;5043186;28;20144;-71
2023/03/18 02:13:49;;;;;;;11.25;5.93;;;8.90;99.90;;;;;;5047613;28;20076;-70
2023/03/18 02:16:34;;;;;;;13.15;6.20;;;8.90;99.90;;;;;;5045524;28;20098;-71
2023/03/18 02:19:21;;;;;;;9.35;6.18;;;8.90;99.90;;;;;;5040358;28;20120;-71
2023/03/18 02:22:21;;;;;;;11.95;6.07;;;8.80;99.90;;;;;;5035363;28;20041;-71
2023/03/18 02:25:31;;;;;;;9.65;5.68;;;8.80;99.90;;;;;;5041003;28;20068;-71
2023/03/18 02:28:02;;;;;;;10.52;6.15;;;8.80;99.90;;;;;;5056072;28;20084;-71
2023/03/18 02:30:46;;;;;;;9.13;6.18;;;8.80;99.90;;;;;;5038076;28;20036;-71
2023/03/18 02:33:15;;;;;;;;;;;8.70;99.90;;;;;;5059263;28;20037;-71
2023/03/18 02:35:49;;;;;;;13.05;6.53;;;8.70;99.90;;;;;;5053022;28;19916;-71
2023/03/18 02:38:26;;;;;;;11.40;6.10;;;8.70;99.90;;;;;;5043597;28;20049;-71
2023/03/18 02:40:53;;;;;;;9.35;6.40;;;8.70;99.90;;;;;;5036204;28;20034;-71
2023/03/18 02:43:26;;;;;;;12.73;6.63;;;8.70;99.90;;;;;;5035902;28;20022;-70
2023/03/18 02:46:05;;;;;;;12.52;6.78;;;8.70;99.90;;;;;;5039838;28;20059;-71
2023/03/18 02:48:37;;;;;;;11.15;6.55;;;8.60;99.90;;;;;;5036984;28;20036;-71
2023/03/18 02:51:08;;;;;;;6.53;4.95;;;8.60;99.90;;;;;;5035174;28;20021;-71
2023/03/18 02:53:36;;;;;;;12.85;6.60;;;8.60;99.90;;;;;;5035790;28;20393;-71
2023/03/18 02:56:03;;;;;;;14.98;6.90;;;8.60;99.90;;;;;;5032527;28;20025;-70
2023/03/18 02:58:37;;;;;;;11.20;5.72;;;8.60;99.90;;;;;;5039401;28;20104;-71
2023/03/18 03:01:10;;;;;;;14.02;6.55;;;8.70;99.90;;;;;;5041127;28;20478;-71
2023/03/18 03:03:44;;;;;;;11.32;6.10;;;8.60;99.90;;;;;;5044504;28;20124;-71
2023/03/18 03:06:17;;;;;;;12.25;6.28;;;8.60;99.90;;;;;;5057938;28;20576;-71
2023/03/18 03:08:50;;;;;;;12.95;7.07;;;8.60;99.90;;;;;;5047249;28;20428;-71
2023/03/18 03:11:22;;;;;;;11.85;6.88;;;8.60;99.90;;;;;;5045929;28;20033;-72
2023/03/18 03:13:49;;;;;;;11.35;6.70;;;8.60;99.90;;;;;;5040255;28;20029;-71
2023/03/18 03:16:18;;;;;;;10.10;7.03;;;8.50;99.90;;;;;;5046162;28;20060;-71
2023/03/18 03:18:45;;;;;;;12.73;6.85;;;8.50;99.90;;;;;;5045716;28;20028;-70
2023/03/18 03:21:13;;;;;;;10.45;6.72;;;8.50;99.90;;;;;;5040527;28;20499;-71
2023/03/18 03:23:40;;;;;;;12.27;7.10;;;8.50;99.90;;;;;;5049654;28;20036;-71
2023/03/18 03:26:10;;;;;;;14.30;7.20;;;8.50;99.90;;;;;;5048563;28;20082;-71
2023/03/18 03:28:37;;;;;;;12.18;7.38;;;8.50;99.90;;;;;;5040395;28;20028;-71
2023/03/18 03:31:04;;;;;;;12.60;7.43;;;8.40;99.90;;;;;;5037721;28;20064;-70
2023/03/18 03:33:36;;;;;;;11.98;7.50;;;8.40;99.90;;;;;;5042052;28;20104;-70
2023/03/18 03:36:04;;;;;;;17.80;7.75;;;8.40;99.90;;;;;;5044247;28;20033;-70
2023/03/18 03:38:30;;;;;;;14.10;8.07;;;8.40;99.90;;;;;;5040710;28;20090;-71
2023/03/18 03:40:57;;;;;;;14.45;8.98;;;8.40;99.90;;;;;;5044328;28;20028;-70
2023/03/18 03:43:26;;;;;;;17.55;8.73;;;8.40;99.90;;;;;;5046623;28;20028;-71
2023/03/18 03:45:57;;;;;;;17.48;8.82;;;8.40;99.90;;;;;;5041869;28;20516;-71
2023/03/18 03:48:26;;;;;;;17.20;8.43;;;8.40;99.90;;;;;;5034974;28;20287;-71
2023/03/18 03:50:52;;;;;;;11.52;8.07;;;8.40;99.90;;;;;;5037174;28;20036;-70
2023/03/18 03:53:18;;;;;;;16.83;8.38;;;8.40;99.90;;;;;;5038821;28;20069;-71
2023/03/18 03:55:45;;;;;;;15.13;8.75;;;8.50;99.90;;;;;;5042834;28;20025;-71
2023/03/18 03:58:15;;;;;;;15.85;8.90;;;8.40;99.90;;;;;;5045470;28;20037;-71
2023/03/18 04:00:46;;;;;;;15.00;9.02;;;8.40;99.90;;;;;;5044442;28;20390;-71
2023/03/18 04:03:12;;;;;;;14.60;8.98;;;8.40;99.90;;;;;;5046756;28;20029;-71
2023/03/18 04:05:40;;;;;;;12.48;8.48;;;8.40;99.90;;;;;;5044890;28;20493;-71
2023/03/18 04:08:17;;;;;;;14.02;8.20;;;8.40;99.90;;;;;;5045941;28;20032;-71
2023/03/18 04:10:49;;;;;;;11.68;7.80;;;8.40;99.90;;;;;;5048432;28;20032;-71
2023/03/18 04:13:17;;;;;;;12.75;7.93;;;8.40;99.90;;;;;;5041251;28;20044;-71
2023/03/18 04:15:49;;;;;;;13.82;7.65;;;8.50;99.90;;;;;;5043300;28;20519;-72
2023/03/18 04:18:21;;;;;;;13.77;7.97;;;8.50;99.90;;;;;;5049567;28;20142;-71
2023/03/18 04:20:53;;;;;;;10.73;8.18;;;8.50;99.90;;;;;;5045569;28;20032;-71
2023/03/18 04:23:24;;;;;;;14.38;8.55;;;8.50;99.90;;;;;;5046181;28;20036;-72
2023/03/18 04:26:03;;;;;;;15.38;7.75;;;8.50;99.90;;;;;;5040462;28;20124;-71
2023/03/18 04:28:37;;;;;;;11.65;7.78;;;8.50;99.90;;;;;;5044364;28;20673;-71
2023/03/18 04:31:08;;;;;;;;;;;8.60;99.90;;;;;;5046191;28;20044;-72
2023/03/18 04:33:43;;;;;;;11.82;7.72;;;8.60;99.90;;;;;;5040873;28;19952;-71
2023/03/18 04:36:22;;;;;;;14.27;7.80;;;8.60;99.90;;;;;;5036392;28;20453;-71
2023/03/18 04:39:01;;;;;;;13.70;8.05;;;8.60;99.90;;;;;;5044612;28;20033;-71
2023/03/18 04:41:27;;;;;;;16.90;8.88;;;8.60;99.90;;;;;;5046130;28;20036;-71
2023/03/18 04:43:53;;;;;;;12.00;8.25;;;8.70;99.90;;;;;;5030168;28;20040;-71
2023/03/18 04:46:20;;;;;;;16.23;8.93;;;8.70;99.90;;;;;;5041212;28;20037;-72
2023/03/18 04:48:47;;;;;;;14.02;8.55;;;8.70;99.90;;;;;;5030270;28;20076;-71
2023/03/18 04:51:14;;;;;;;14.98;8.60;;;8.60;99.90;;;;;;5042600;28;20083;-71
2023/03/18 04:53:41;;;;;;;13.20;8.85;;;8.70;99.90;;;;;;5052324;28;20489;-71
2023/03/18 04:56:15;;;;;;;17.13;9.18;;;8.60;99.90;;;;;;5036020;28;20090;-71
2023/03/18 04:58:46;;;;;;;14.68;8.73;;;8.60;99.90;;;;;;5040164;28;20670;-71
2023/03/18 05:01:12;;;;;;;17.63;9.07;;;8.60;99.90;;;;;;5041534;28;20844;-71
2023/03/18 05:03:49;;;;;;;13.13;9.13;;;8.60;99.90;;;;;;5047217;28;20548;-72
2023/03/18 05:06:28;;;;;;;14.18;9.40;;;8.50;99.90;;;;;;5046603;28;20075;-71
2023/03/18 05:09:04;;;;;;;13.80;9.32;;;8.50;99.90;;;;;;5037338;28;20040;-71
2023/03/18 05:11:39;;;;;;;15.45;9.68;;;8.40;99.90;;;;;;5047692;28;20036;-71
2023/03/18 05:14:14;;;;;;;15.80;10.30;;;8.40;99.90;;;;;;5038371;28;20414;-71
2023/03/18 05:16:47;;;;;;;16.48;10.73;;;8.40;99.90;;;;;;5028752;28;20034;-71
2023/03/18 05:19:21;;;;;;;15.63;10.18;;;8.30;99.90;;;;;;5036682;28;20036;-71
2023/03/18 05:21:52;;;;;;;17.75;10.23;;;8.30;99.90;;;;;;5032230;28;20120;-72
2023/03/18 05:24:26;;;;;;;17.13;11.25;;;8.30;99.90;;;;;;5029575;28;20469;-71
2023/03/18 05:27:01;;;;;;;19.10;11.77;;;8.30;99.90;;;;;;5051049;28;20258;-72
2023/03/18 05:29:28;;;;;;;19.50;12.13;;;8.20;99.90;;;;;;5039908;28;20037;-71
2023/03/18 05:32:00;;;;;;;20.35;12.15;;;8.20;99.90;;;;;;5042696;28;20033;-72
2023/03/18 05:34:36;;;;;;;20.20;11.88;;;8.20;99.90;;;;;;5049989;28;20036;-70
2023/03/18 05:37:08;;;;;;;19.17;12.30;;;8.30;99.90;;;;;;5049298;28;20040;-71
2023/03/18 05:39:42;;;;;;;25.08;12.98;;;8.30;99.90;;;;;;5042371;28;20107;-71
2023/03/18 05:42:16;;;;;;;19.58;12.65;;;8.30;99.90;;;;;;5068307;28;20120;-71
2023/03/18 05:44:48;;;;;;;20.50;12.68;;;8.30;99.90;;;;;;5056171;28;20142;-71
2023/03/18 05:47:22;;;;;;;18.83;12.43;;;8.40;99.90;;;;;;5035866;28;20445;-72
2023/03/18 05:49:54;;;;;;;27.83;13.00;;;8.40;99.90;;;;;;5042660;28;20040;-72
2023/03/18 05:52:19;;;;;;;19.27;12.00;;;8.40;99.90;;;;;;5045103;28;20049;-72
2023/03/18 05:54:47;;;;;;;25.00;12.60;;;8.40;99.90;;;;;;5047634;28;20033;-72
2023/03/18 05:57:19;;;;;;;23.50;13.10;;;8.40;99.90;;;;;;5040066;28;20033;-72
2023/03/18 05:59:52;;;;;;;21.08;12.18;;;8.40;99.90;;;;;;5035662;28;20025;-72
2023/03/18 06:02:25;;;;;;;16.52;9.50;;;8.50;99.90;;;;;;5031410;28;20055;-71
2023/03/18 06:04:51;;;;;;;18.80;12.63;;;8.40;99.90;;;;;;5036980;28;20044;-71
2023/03/18 06:07:17;;;;;;;19.85;13.07;;;8.50;99.90;;;;;;5043997;28;20052;-72
2023/03/18 06:09:43;;;;;;;24.40;12.73;;;8.40;99.90;;;;;;5042066;28;20040;-71
2023/03/18 06:12:09;;;;;;;21.23;12.75;;;8.60;99.90;;;;;;5027714;28;20057;-71
2023/03/18 06:14:36;;;;;;;20.95;12.85;;;8.60;99.90;;;;;;5043324;28;20048;-71
2023/03/18 06:17:04;;;;;;;19.77;12.15;;;8.60;99.90;;;;;;5040685;28;20040;-72
2023/03/18 06:19:34;;;;;;;18.48;12.05;;;8.60;99.90;;;;;;5041942;28;20119;-72
2023/03/18 06:22:01;;;;;;;18.08;12.02;;;8.70;99.90;;;;;;5043762;28;20086;-72
2023/03/18 06:24:30;;;;;;;22.25;12.85;;;8.70;99.90;;;;;;5051377;28;20036;-72
2023/03/18 06:26:56;;;;;;;20.88;12.23;;;8.70;99.90;;;;;;5059360;28;20385;-72
2023/03/18 06:29:22;;;;;;;20.27;12.27;;;8.70;99.90;;;;;;5049066;28;20345;-72
2023/03/18 06:31:48;;;;;;;21.48;12.73;;;8.70;99.90;;;;;;5045561;28;20064;-72
2023/03/18 06:34:14;;;;;;;19.85;12.68;;;8.70;99.90;;;;;;5063670;28;20123;-72
2023/03/18 06:36:40;;;;;;;19.42;12.82;;;8.80;99.90;;;;;;5043958;28;20588;-72
2023/03/18 06:39:06;;;;;;;24.02;13.45;;;8.80;99.90;;;;;;5044131;28;20039;-72
2023/03/18 06:41:34;;;;;;;18.77;11.95;;;8.80;99.90;;;;;;5044676;28;20036;-72
2023/03/18 06:44:00;;;;;;;20.80;12.32;;;8.80;99.90;;;;;;5037727;28;20033;-72
2023/03/18 06:46:28;;;;;;;21.27;12.63;;;8.90;99.90;;;;;;5045643;28;20354;-72
2023/03/18 06:48:55;;;;;;;18.05;11.82;;;8.90;99.90;;;;;;5032671;28;20017;-72
2023/03/18 06:51:21;;;;;;;23.88;13.63;;;8.90;99.90;;;;;;5042753;28;20025;-72
2023/03/18 06:53:52;;;;;;;26.10;14.48;;;9.00;99.90;;;;;;5050346;28;20087;-72
2023/03/18 06:56:21;;;;;;;32.75;16.55;;;9.00;99.90;;;;;;5037483;28;20030;-72
2023/03/18 06:58:46;;;;;;;27.88;15.18;;;9.00;99.90;;;;;;5046368;28;20045;-72
2023/03/18 07:01:12;;;;;;;21.75;12.98;;;9.00;99.90;;;;;;5039778;28;20029;-71
2023/03/18 07:03:43;;;;;;;22.50;12.98;;;9.00;99.90;;;;;;5047262;28;20120;-72
2023/03/18 07:06:12;;;;;;;22.73;12.68;;;8.90;99.90;;;;;;5048997;28;20111;-72
2023/03/18 07:08:39;;;;;;;22.60;13.55;;;9.00;99.90;;;;;;5041258;28;20055;-71
2023/03/18 07:11:07;;;;;;;22.00;13.00;;;9.00;99.90;;;;;;5049896;28;20106;-72
2023/03/18 07:13:36;;;;;;;20.73;12.45;;;9.00;99.90;;;;;;5038068;28;20155;-72
2023/03/18 07:16:02;;;;;;;19.98;12.80;;;9.00;99.90;;;;;;5038025;28;20029;-72
2023/03/18 07:18:28;;;;;;;24.70;15.48;;;9.10;99.90;;;;;;5045950;28;20067;-72
2023/03/18 07:20:54;;;;;;;22.90;13.48;;;9.10;99.90;;;;;;5041723;28;20025;-72
2023/03/18 07:23:25;;;;;;;18.42;12.23;;;9.10;99.90;;;;;;5048785;28;20044;-71
2023/03/18 07:25:58;;;;;;;18.40;13.07;;;9.20;99.90;;;;;;5042093;28;20028;-71
2023/03/18 07:28:32;;;;;;;19.73;11.65;;;9.20;99.90;;;;;;5044760;28;20025;-72
2023/03/18 07:30:58;;;;;;;21.80;13.88;;;9.20;99.90;;;;;;5035868;28;20033;-72
2023/03/18 07:33:33;;;;;;;20.95;13.95;;;9.30;99.90;;;;;;5046204;28;20029;-72
2023/03/18 07:36:05;;;;;;;18.23;12.45;;;9.30;99.90;;;;;;5045840;28;20545;-72
2023/03/18 07:38:35;;;;;;;20.55;11.88;;;9.40;99.90;;;;;;5048079;28;20037;-72
2023/03/18 07:41:08;;;;;;;16.50;11.88;;;9.40;99.90;;;;;;5049946;28;20049;-71
2023/03/18 07:43:39;;;;;;;21.85;11.70;;;9.50;99.90;;;;;;5057734;28;20030;-72
2023/03/18 07:46:06;;;;;;;18.08;11.40;;;9.50;99.90;;;;;;5046485;28;20449;-71
2023/03/18 07:48:45;;;;;;;18.75;12.15;;;9.60;99.90;;;;;;5056158;28;20366;-72
2023/03/18 07:51:14;;;;;;;19.92;11.45;;;9.70;99.90;;;;;;5047345;28;20047;-72
2023/03/18 07:53:50;;;;;;;17.10;10.90;;;9.80;99.90;;;;;;5051785;28;20171;-72
2023/03/18 07:56:21;;;;;;;18.73;11.48;;;9.80;99.90;;;;;;5035583;28;20070;-72
2023/03/18 07:58:52;;;;;;;19.02;11.38;;;9.90;99.90;;;;;;5047242;28;20044;-72
2023/03/18 08:01:26;;;;;;;17.70;10.85;;;;;;;;;;5051676;28;20064;-72
2023/03/18 08:04:00;;;;;;;16.05;10.43;;;;;;;;;;5042065;28;20028;-71
2023/03/18 08:06:30;;;;;;;20.73;9.80;;;;;;;;;;5042532;28;20041;-72
2023/03/18 08:09:01;;;;;;;18.20;10.82;;;;;;;;;;5047660;28;20040;-72
2023/03/18 08:11:29;;;;;;;18.10;10.77;;;;;;;;;;5041539;28;20086;-72
2023/03/18 08:13:56;;;;;;;14.13;9.55;;;;;;;;;;5039849;28;20029;-72
2023/03/18 08:16:22;;;;;;;14.50;9.77;;;10.90;99.90;;;;;;5032843;28;20029;-72
2023/03/18 08:18:50;;;;;;;15.23;9.30;;;11.00;99.90;;;;;;5044674;28;20037;-71
2023/03/18 08:21:17;;;;;;;16.88;9.88;;;11.10;99.90;;;;;;5042956;28;20112;-72
2023/03/18 08:23:46;;;;;;;14.65;9.82;;;11.30;99.90;;;;;;5046378;28;20092;-72
2023/03/18 08:26:12;;;;;;;15.23;8.05;;;11.40;99.90;;;;;;5037254;28;20025;-72
2023/03/18 08:28:41;;;;;;;15.20;9.05;;;11.60;99.90;;;;;;5037734;28;20425;-72
2023/03/18 08:31:08;;;;;;;18.15;9.00;;;11.70;99.90;;;;;;5044026;28;20104;-72
2023/03/18 08:33:37;;;;;;;13.57;8.43;;;11.90;99.90;;;;;;5049541;28;20032;-72
2023/03/18 08:36:03;;;;;;;15.73;8.95;;;11.90;99.90;;;;;;5041307;28;20029;-71
2023/03/18 08:38:32;;;;;;;14.38;8.05;;;12.00;99.90;;;;;;5037879;28;20036;-72
2023/03/18 08:41:00;;;;;;;13.13;7.95;;;12.10;99.90;;;;;;5048204;28;20026;-72
2023/03/18 08:43:31;;;;;;;14.52;7.97;;;12.20;99.90;;;;;;5045305;28;20094;-71
2023/03/18 08:46:03;;;;;;;10.18;7.05;;;12.40;99.90;;;;;;5037037;28;20029;-72
2023/03/18 08:48:36;;;;;;;14.60;7.05;;;12.50;99.90;;;;;;5039682;28;20029;-72
2023/03/18 08:51:13;;;;;;;12.85;7.55;;;12.70;99.90;;;;;;5044406;28;20033;-72
2023/03/18 08:53:48;;;;;;;11.32;6.72;;;12.80;99.90;;;;;;5042667;28;20060;-72
2023/03/18 08:56:16;;;;;;;14.68;6.43;;;12.90;99.90;;;;;;5039690;28;20036;-72
2023/03/18 08:58:47;;;;;;;15.18;7.72;;;13.00;99.90;;;;;;5044883;28;20193;-72
2023/03/18 09:01:21;;;;;;;11.85;7.32;;;;;;;;;;5037106;28;20032;-72
2023/03/18 09:03:56;;;;;;;15.38;8.02;;;13.10;99.90;;;;;;5050205;28;20063;-71
2023/03/18 09:06:30;;;;;;;12.60;6.35;;;13.20;99.90;;;;;;5038617;28;20434;-72
2023/03/18 09:09:02;;;;;;;10.88;6.13;;;13.20;99.90;;;;;;5043651;28;20024;-72
2023/03/18 09:11:32;;;;;;;14.30;6.45;;;13.30;99.90;;;;;;5035228;28;20033;-72
2023/03/18 09:14:03;;;;;;;10.63;5.82;;;13.40;99.90;;;;;;5036917;28;20142;-72
2023/03/18 09:16:32;;;;;;;15.45;6.43;;;13.40;99.90;;;;;;5030702;28;20030;-72
2023/03/18 09:19:03;;;;;;;9.93;5.18;;;13.40;99.90;;;;;;5039479;28;20425;-72
2023/03/18 09:21:38;;;;;;;8.93;4.45;;;13.50;99.90;;;;;;5038876;28;20189;-72
2023/03/18 09:24:05;;;;;;;9.30;4.60;;;13.60;99.90;;;;;;5045213;28;20037;-72
2023/03/18 09:26:38;;;;;;;7.25;4.20;;;13.60;99.90;;;;;;5039745;28;20029;-72
2023/03/18 09:29:11;;;;;;;7.80;4.78;;;13.60;99.90;;;;;;5037878;28;20033;-72
2023/03/18 09:31:45;;;;;;;10.57;5.20;;;13.70;99.90;;;;;;5048091;28;20379;-72
2023/03/18 09:34:19;;;;;;;9.50;4.65;;;13.80;99.90;;;;;;5048873;28;20112;-72
2023/03/18 09:36:53;;;;;;;9.73;5.70;;;13.80;99.90;;;;;;5042822;28;20025;-72
2023/03/18 09:39:21;;;;;;;7.55;4.15;;;14.00;99.90;;;;;;5046906;28;20074;-71
2023/03/18 09:42:29;;;;;;;11.48;4.60;;;14.10;99.90;;;;;;5043566;28;20049;-72
2023/03/18 09:45:15;;;;;;;8.50;4.45;;;14.10;99.90;;;;;;5044890;28;20033;-72
2023/03/18 09:48:21;;;;;;;8.70;3.92;;;14.00;99.90;;;;;;5040584;28;20064;-72
2023/03/18 09:51:12;;;;;;;12.85;5.38;;;13.90;99.90;;;;;;5044828;28;20120;-71
2023/03/18 09:53:53;;;;;;;10.80;6.50;;;13.80;99.90;;;;;;5048554;28;20041;-72
2023/03/18 09:56:31;;;;;;;9.18;4.35;;;13.90;99.90;;;;;;5038477;28;20024;-71
2023/03/18 09:59:21;;;;;;;8.23;3.70;;;14.00;99.90;;;;;;5033614;28;20017;-72
2023/03/18 10:01:57;;;;;;;11.27;3.85;;;14.20;99.90;;;;;;5035366;28;20036;-72
2023/03/18 10:04:47;;;;;;;7.65;3.83;;;14.40;99.90;;;;;;5040134;28;20371;-72
2023/03/18 10:07:23;;;;;;;9.75;3.72;;;14.60;99.90;;;;;;5048849;28;20041;-72
2023/03/18 10:09:58;;;;;;;7.80;3.70;;;14.80;99.90;;;;;;5046223;28;20041;-72
2023/03/18 10:12:42;;;;;;;8.30;3.45;;;14.90;99.90;;;;;;5039696;28;20029;-72
2023/03/18 10:15:27;;;;;;;6.80;3.30;;;15.00;99.90;;;;;;5042519;28;20029;-72
2023/03/18 10:18:23;;;;;;;5.90;3.35;;;15.20;99.90;;;;;;5042561;28;20504;-72
2023/03/18 10:20:58;;;;;;;6.82;3.38;;;15.30;99.90;;;;;;5039434;28;20405;-72
2023/03/18 10:23:46;;;;;;;7.00;3.45;;;15.50;99.90;;;;;;5039275;28;20032;-72
2023/03/18 10:26:40;;;;;;;9.18;4.60;;;15.60;99.90;;;;;;5050994;28;20095;-72
2023/03/18 10:29:36;;;;;;;6.15;3.25;;;15.60;99.90;;;;;;5050559;28;20386;-72
2023/03/18 10:32:27;;;;;;;7.15;3.58;;;15.80;99.90;;;;;;5038577;28;20040;-71
2023/03/18 10:35:02;;;;;;;5.60;2.80;;;;;;;;;;5031683;28;20045;-74
2023/03/18 10:37:43;;;;;;;6.72;2.85;;;16.10;99.90;;;;;;5031404;28;20033;-74
2023/03/18 10:40:22;;;;;;;8.48;3.08;;;16.30;99.90;;;;;;5041564;28;20045;-74
2023/03/18 10:43:00;;;;;;;7.78;3.10;;;16.40;99.90;;;;;;5048187;28;20029;-74
2023/03/18 10:45:39;;;;;;;7.72;2.95;;;16.40;99.90;;;;;;5038418;28;20049;-74
2023/03/18 10:48:25;;;;;;;9.27;3.08;;;16.50;99.90;;;;;;5028108;28;20045;-74
2023/03/18 10:51:20;;;;;;;5.60;2.80;;;16.50;99.90;;;;;;5029034;28;20037;-74
2023/03/18 10:54:16;;;;;;;7.05;2.55;;;16.50;99.90;;;;;;5034887;28;20107;-74
2023/03/18 10:56:47;;;;;;;6.07;2.72;;;16.50;99.90;;;;;;5048306;28;20417;-74
2023/03/18 10:59:22;;;;;;;9.68;2.88;;;16.60;99.90;;;;;;5047856;28;20048;-74
2023/03/18 11:02:15;;;;;;;6.32;2.65;;;16.60;99.90;;;;;;5045696;28;20474;-73
2023/03/18 11:04:58;;;;;;;4.45;2.33;;;16.70;99.90;;;;;;5038470;28;20040;-74
2023/03/18 11:07:33;;;;;;;4.18;2.53;;;16.70;99.90;;;;;;5027923;28;20034;-74
2023/03/18 11:10:17;;;;;;;8.57;2.45;;;16.60;99.90;;;;;;5041981;28;20346;-74
2023/03/18 11:12:53;;;;;;;5.35;2.28;;;16.50;99.90;;;;;;5038555;28;20018;-73
2023/03/18 11:15:23;;;;;;;5.72;2.40;;;16.50;99.90;;;;;;5048190;28;20298;-74
2023/03/18 11:17:51;;;;;;;4.70;2.65;;;16.60;99.90;;;;;;5040634;28;20025;-74
2023/03/18 11:20:48;;;;;;;7.20;2.60;;;16.50;99.90;;;;;;5050872;28;20059;-74
2023/03/18 11:23:47;;;;;;;4.70;2.50;;;16.70;99.90;;;;;;5045293;28;20481;-73
2023/03/18 11:26:27;;;;;;;4.88;2.50;;;16.70;99.90;;;;;;5050476;28;20041;-74
2023/03/18 11:29:12;;;;;;;4.93;2.50;;;16.60;99.90;;;;;;5037927;28;20029;-74
2023/03/18 11:32:01;;;;;;;4.75;2.50;;;16.80;99.90;;;;;;5049377;28;20028;-73
2023/03/18 11:34:36;;;;;;;6.47;2.50;;;16.90;99.90;;;;;;5048877;28;20159;-74
2023/03/18 11:37:12;;;;;;;5.18;2.53;;;17.00;99.90;;;;;;5051040;28;20154;-74
2023/03/18 11:39:43;;;;;;;4.53;2.42;;;16.80;99.90;;;;;;5046837;28;20037;-74
2023/03/18 11:42:22;;;;;;;5.10;2.45;;;16.80;99.90;;;;;;5044219;28;20047;-74
2023/03/18 11:44:57;;;;;;;6.78;2.53;;;16.90;99.90;;;;;;5044057;28;20125;-74
2023/03/18 11:47:29;;;;;;;5.20;2.60;;;16.70;99.90;;;;;;5050661;28;20037;-74
2023/03/18 11:49:58;;;;;;;4.25;2.63;;;16.60;99.90;;;;;;5044131;28;20498;-74
2023/03/18 11:52:51;;;;;;;7.57;2.55;;;16.70;99.90;;;;;;5044130;28;20071;-74
2023/03/18 11:55:53;;;;;;;6.15;2.30;;;16.70;99.90;;;;;;5048149;28;20100;-74
2023/03/18 11:59:02;;;;;;;4.65;2.40;;;16.80;99.90;;;;;;5030995;28;20038;-73
2023/03/18 12:01:38;;;;;;;3.92;2.35;;;;;;;;;;5035998;28;20102;-73
2023/03/18 12:04:27;;;;;;;6.00;2.50;;;17.20;99.90;;;;;;5030966;28;20056;-74
2023/03/18 12:07:07;;;;;;;7.35;2.97;;;17.30;99.90;;;;;;5047936;28;20037;-74
2023/03/18 12:10:03;;;;;;;4.72;2.70;;;17.40;99.90;;;;;;5049467;28;20032;-74
2023/03/18 12:12:43;;;;;;;4.07;2.63;;;17.40;99.90;;;;;;5050345;28;20087;-74
2023/03/18 12:15:32;;;;;;;5.38;2.60;;;17.60;99.90;;;;;;5034893;28;20110;-74
2023/03/18 12:18:27;;;;;;;6.55;2.78;;;17.80;99.90;;;;;;5050235;28;20040;-74
2023/03/18 12:21:12;;;;;;;6.78;2.65;;;17.80;99.90;;;;;;5030281;28;20045;-74
2023/03/18 12:24:13;;;;;;;6.95;2.40;;;17.60;99.90;;;;;;5030393;28;20021;-74
2023/03/18 12:27:12;;;;;;;4.70;2.42;;;17.80;99.90;;;;;;5041297;28;20025;-74
2023/03/18 12:30:06;;;;;;;5.72;2.53;;;17.90;99.90;;;;;;5029727;28;20041;-74
2023/03/18 12:33:05;;;;;;;9.02;2.38;;;17.90;99.90;;;;;;5049217;28;20025;-74
2023/03/18 12:36:06;;;;;;;5.35;2.75;;;17.60;99.90;;;;;;5047829;28;20371;-74
2023/03/18 12:38:59;;;;;;;4.97;2.38;;;17.30;99.90;;;;;;5033131;28;20573;-74
2023/03/18 12:41:55;;;;;;;4.95;2.60;;;17.10;99.90;;;;;;5041024;28;20041;-74
2023/03/18 12:44:45;;;;;;;6.07;2.70;;;17.00;99.90;;;;;;5038937;28;20036;-74
2023/03/18 12:47:31;;;;;;;8.55;2.20;;;17.10;99.90;;;;;;5043258;28;20473;-74
2023/03/18 12:50:24;;;;;;;5.63;2.30;;;17.50;99.90;;;;;;5029615;28;20482;-74
2023/03/18 12:53:13;;;;;;;5.78;2.40;;;17.70;99.90;;;;;;5035860;28;20041;-74
2023/03/18 12:55:46;;;;;;;5.22;1.90;;;17.90;99.90;;;;;;5028724;28;20032;-73
2023/03/18 12:58:32;;;;;;;5.07;1.70;;;18.10;99.90;;;;;;5040450;28;20107;-74
2023/03/18 13:01:20;;;;;;;3.60;1.70;;;18.30;99.90;;;;;;5033187;28;20037;-74
2023/03/18 13:04:12;;;;;;;5.40;1.75;;;18.40;99.90;;;;;;5028748;28;20041;-73
2023/03/18 13:06:53;;;;;;;8.30;2.35;;;18.40;99.90;;;;;;5047191;28;20055;-74
2023/03/18 13:09:53;;;;;;;5.68;1.98;;;17.80;99.90;;;;;;5044357;28;20029;-73
2023/03/18 13:12:34;;;;;;;5.40;2.45;;;17.50;99.90;;;;;;5038668;28;20100;-73
2023/03/18 13:15:16;;;;;;;5.60;2.30;;;17.30;99.90;;;;;;5035003;28;20037;-73
2023/03/18 13:17:58;;;;;;;7.53;2.60;;;17.10;99.90;;;;;;5048852;28;20073;-73
2023/03/18 13:20:38;;;;;;;3.75;2.03;;;17.00;99.90;;;;;;5044668;28;20041;-74
2023/03/18 13:23:23;;;;;;;6.80;2.22;;;17.00;99.90;;;;;;5045730;28;20104;-73
2023/03/18 13:26:09;;;;;;;5.32;1.73;;;17.10;99.90;;;;;;5033459;28;20056;-73
2023/03/18 13:29:11;;;;;;;4.75;1.70;;;17.20;99.90;;;;;;5043514;28;20122;-73